sensor_id;sensor_type;location;lat;lon;timestamp;pressure;altitude;pressure_sealevel;temperature;humidity
30343;BME280;17145;49.902;8.680;'2023-07-29 01:57:47';99470;;;19;60
30343;BME280;17145;49.902;8.680;'2023-07-29 02:00:15';99460;;;19;60
30343;BME280;17145;49.902;8.680;'2023-07-29 02:02:43';99470;;;19;60
30343;BME280;17145;49.902;8.680;'2023-07-29 02:05:10';99460;;;19;60
30343;BME280;17145;49.902;8.680;'2023-07-29 02:07:37';99460;;;19;60
30343;BME280;17145;49.902;8.680;'2023-07-29 02:10:06';99460;;;19;60
30343;BME280;17145;49.902;8.680;'2023-07-29 02:12:34';99460;;;19;60
30343;BME280;17145;49.902;8.680;'2023-07-29 02:15:02';99450;;;19;60
30343;BME280;17145;49.902;8.680;'2023-07-29 02:17:29';99450;;;19;60
30343;BME280;17145;49.902;8.680;'2023-07-29 02:19:57';99440;;;19;61
30343;BME280;17145;49.902;8.680;'2023-07-29 02:22:24';99440;;;19;61
30343;BME280;17145;49.902;8.680;'2023-07-29 02:24:52';99440;;;19;61
30343;BME280;17145;49.902;8.680;'2023-07-29 02:27:19';99440;;;19;61
30343;BME280;17145;49.902;8.680;'2023-07-29 02:29:47';99440;;;19;61
30343;BME280;17145;49.902;8.680;'2023-07-29 02:32:15';99440;;;19;61
30343;BME280;17145;49.902;8.680;'2023-07-29 02:34:42';99430;;;19;61
30343;BME280;17145;49.902;8.680;'2023-07-29 02:37:09';99430;;;19;61
30343;BME280;17145;49.902;8.680;'2023-07-29 02:39:37';99420;;;19;61
30343;BME280;17145;49.902;8.680;'2023-07-29 02:42:05';99420;;;19;61
30343;BME280;17145;49.902;8.680;'2023-07-29 02:44:32';99420;;;19;61
30343;BME280;17145;49.902;8.680;'2023-07-29 02:47:02';99410;;;19;61
30343;BME280;17145;49.902;8.680;'2023-07-29 02:49:29';99420;;;19;61
30343;BME280;17145;49.902;8.680;'2023-07-29 02:51:57';99420;;;19;61
30343;BME280;17145;49.902;8.680;'2023-07-29 02:54:24';99420;;;19;61
30343;BME280;17145;49.902;8.680;'2023-07-29 02:56:51';99420;;;19;61
30343;BME280;17145;49.902;8.680;'2023-07-29 02:59:19';99420;;;19;61
30343;BME280;17145;49.902;8.680;'2023-07-29 03:01:46';99420;;;19;61
30343;BME280;17145;49.902;8.680;'2023-07-29 03:04:14';99410;;;19;61
30343;BME280;17145;49.902;8.680;'2023-07-29 03:06:50';99410;;;19;61
30343;BME280;17145;49.902;8.680;'2023-07-29 03:09:23';99410;;;19;61
30343;BME280;17145;49.902;8.680;'2023-07-29 03:12:00';99400;;;19;61
30343;BME280;17145;49.902;8.680;'2023-07-29 03:14:36';99400;;;19;61
30343;BME280;17145;49.902;8.680;'2023-07-29 03:17:07';99400;;;19;61
30343;BME280;17145;49.902;8.680;'2023-07-29 03:19:47';99400;;;19;62
30343;BME280;17145;49.902;8.680;'2023-07-29 03:22:16';99390;;;19;62
30343;BME280;17145;49.902;8.680;'2023-07-29 03:24:43';99400;;;19;62
30343;BME280;17145;49.902;8.680;'2023-07-29 03:27:11';99400;;;19;62
30343;BME280;17145;49.902;8.680;'2023-07-29 03:29:38';99400;;;19;62
30343;BME280;17145;49.902;8.680;'2023-07-29 03:32:13';99400;;;19;62
30343;BME280;17145;49.902;8.680;'2023-07-29 03:34:48';99400;;;19;62
30343;BME280;17145;49.902;8.680;'2023-07-29 03:37:25';99390;;;19;62
30343;BME280;17145;49.902;8.680;'2023-07-29 03:39:57';99390;;;19;62
30343;BME280;17145;49.902;8.680;'2023-07-29 03:42:25';99390;;;19;62
30343;BME280;17145;49.902;8.680;'2023-07-29 03:44:53';99390;;;19;62
30343;BME280;17145;49.902;8.680;'2023-07-29 03:47:20';99390;;;19;62
30343;BME280;17145;49.902;8.680;'2023-07-29 03:49:48';99380;;;19;61
30343;BME280;17145;49.902;8.680;'2023-07-29 03:52:15';99380;;;19;62
30343;BME280;17145;49.902;8.680;'2023-07-29 03:54:42';99370;;;19;62
30343;BME280;17145;49.902;8.680;'2023-07-29 03:57:10';99370;;;19;61
30343;BME280;17145;49.902;8.680;'2023-07-29 03:59:37';99360;;;19;61
30343;BME280;17145;49.902;8.680;'2023-07-29 04:02:05';99370;;;19;61
30343;BME280;17145;49.902;8.680;'2023-07-29 04:04:32';99370;;;19;61
30343;BME280;17145;49.902;8.680;'2023-07-29 04:07:00';99370;;;19;61
30343;BME280;17145;49.902;8.680;'2023-07-29 04:09:27';99370;;;19;61
30343;BME280;17145;49.902;8.680;'2023-07-29 04:11:55';99370;;;19;61
30343;BME280;17145;49.902;8.680;'2023-07-29 04:14:22';99370;;;19;61
30343;BME280;17145;49.902;8.680;'2023-07-29 04:16:50';99370;;;19;61
30343;BME280;17145;49.902;8.680;'2023-07-29 04:19:17';99360;;;19;61
30343;BME280;17145;49.902;8.680;'2023-07-29 04:21:44';99370;;;19;62
30343;BME280;17145;49.902;8.680;'2023-07-29 04:24:12';99360;;;19;62
30343;BME280;17145;49.902;8.680;'2023-07-29 04:26:41';99360;;;19;62
30343;BME280;17145;49.902;8.680;'2023-07-29 04:29:08';99360;;;19;62
30343;BME280;17145;49.902;8.680;'2023-07-29 04:31:36';99350;;;19;62
30343;BME280;17145;49.902;8.680;'2023-07-29 04:34:03';99350;;;19;62
30343;BME280;17145;49.902;8.680;'2023-07-29 04:36:30';99350;;;19;62
30343;BME280;17145;49.902;8.680;'2023-07-29 04:38:58';99360;;;19;62
30343;BME280;17145;49.902;8.680;'2023-07-29 04:41:25';99360;;;19;62
30343;BME280;17145;49.902;8.680;'2023-07-29 04:43:52';99360;;;19;62
30343;BME280;17145;49.902;8.680;'2023-07-29 04:46:20';99360;;;19;62
30343;BME280;17145;49.902;8.680;'2023-07-29 04:48:47';99350;;;19;62
30343;BME280;17145;49.902;8.680;'2023-07-29 04:51:14';99350;;;19;63
30343;BME280;17145;49.902;8.680;'2023-07-29 04:53:42';99340;;;19;63
30343;BME280;17145;49.902;8.680;'2023-07-29 04:56:09';99350;;;19;63
30343;BME280;17145;49.902;8.680;'2023-07-29 04:58:37';99350;;;19;62
30343;BME280;17145;49.902;8.680;'2023-07-29 05:01:05';99350;;;19;62
30343;BME280;17145;49.902;8.680;'2023-07-29 05:03:33';99350;;;19;62
30343;BME280;17145;49.902;8.680;'2023-07-29 05:06:04';99340;;;19;62
30343;BME280;17145;49.902;8.680;'2023-07-29 05:08:31';99340;;;19;63
30343;BME280;17145;49.902;8.680;'2023-07-29 05:10:59';99340;;;19;63
30343;BME280;17145;49.902;8.680;'2023-07-29 05:13:26';99330;;;19;63
30343;BME280;17145;49.902;8.680;'2023-07-29 05:15:53';99330;;;19;63
30343;BME280;17145;49.902;8.680;'2023-07-29 05:18:21';99330;;;19;63
30343;BME280;17145;49.902;8.680;'2023-07-29 05:20:49';99320;;;19;63
30343;BME280;17145;49.902;8.680;'2023-07-29 05:23:16';99320;;;19;62
30343;BME280;17145;49.902;8.680;'2023-07-29 05:25:43';99330;;;19;62
30343;BME280;17145;49.902;8.680;'2023-07-29 05:28:11';99320;;;19;62
30343;BME280;17145;49.902;8.680;'2023-07-29 05:30:38';99320;;;19;62
30343;BME280;17145;49.902;8.680;'2023-07-29 05:33:05';99320;;;19;62
30343;BME280;17145;49.902;8.680;'2023-07-29 05:35:33';99320;;;19;62
30343;BME280;17145;49.902;8.680;'2023-07-29 05:38:00';99310;;;19;62
30343;BME280;17145;49.902;8.680;'2023-07-29 05:40:28';99310;;;19;62
30343;BME280;17145;49.902;8.680;'2023-07-29 05:42:55';99310;;;19;62
30343;BME280;17145;49.902;8.680;'2023-07-29 05:45:22';99310;;;19;62
30343;BME280;17145;49.902;8.680;'2023-07-29 05:47:50';99320;;;18;62
30343;BME280;17145;49.902;8.680;'2023-07-29 05:50:17';99310;;;19;62
30343;BME280;17145;49.902;8.680;'2023-07-29 05:52:44';99310;;;18;62
30343;BME280;17145;49.902;8.680;'2023-07-29 05:55:12';99310;;;19;62
30343;BME280;17145;49.902;8.680;'2023-07-29 05:57:39';99310;;;19;62
30343;BME280;17145;49.902;8.680;'2023-07-29 06:00:07';99320;;;19;62
30343;BME280;17145;49.902;8.680;'2023-07-29 06:02:35';99320;;;19;62
30343;BME280;17145;49.902;8.680;'2023-07-29 06:05:02';99310;;;19;62
30343;BME280;17145;49.902;8.680;'2023-07-29 06:07:30';99310;;;18;62
30343;BME280;17145;49.902;8.680;'2023-07-29 06:09:57';99310;;;19;62
30343;BME280;17145;49.902;8.680;'2023-07-29 06:12:24';99310;;;19;62
30343;BME280;17145;49.902;8.680;'2023-07-29 06:14:52';99320;;;19;62
30343;BME280;17145;49.902;8.680;'2023-07-29 06:17:20';99320;;;18;62
30343;BME280;17145;49.902;8.680;'2023-07-29 06:19:47';99310;;;19;62
30343;BME280;17145;49.902;8.680;'2023-07-29 06:22:15';99310;;;19;62
30343;BME280;17145;49.902;8.680;'2023-07-29 06:24:43';99300;;;19;62
30343;BME280;17145;49.902;8.680;'2023-07-29 06:27:10';99310;;;19;62
30343;BME280;17145;49.902;8.680;'2023-07-29 06:29:38';99310;;;19;62
30343;BME280;17145;49.902;8.680;'2023-07-29 06:32:06';99310;;;19;62
30343;BME280;17145;49.902;8.680;'2023-07-29 06:34:33';99310;;;19;62
30343;BME280;17145;49.902;8.680;'2023-07-29 06:37:01';99310;;;19;62
30343;BME280;17145;49.902;8.680;'2023-07-29 06:39:28';99310;;;19;62
30343;BME280;17145;49.902;8.680;'2023-07-29 06:41:55';99300;;;19;62
30343;BME280;17145;49.902;8.680;'2023-07-29 06:44:23';99300;;;19;62
30343;BME280;17145;49.902;8.680;'2023-07-29 06:46:50';99300;;;19;62
30343;BME280;17145;49.902;8.680;'2023-07-29 06:49:18';99300;;;19;62
30343;BME280;17145;49.902;8.680;'2023-07-29 06:51:45';99300;;;19;62
30343;BME280;17145;49.902;8.680;'2023-07-29 06:54:12';99300;;;19;62
30343;BME280;17145;49.902;8.680;'2023-07-29 06:56:40';99300;;;19;62
30343;BME280;17145;49.902;8.680;'2023-07-29 06:59:07';99300;;;19;63
30343;BME280;17145;49.902;8.680;'2023-07-29 07:01:34';99300;;;18;62
30343;BME280;17145;49.902;8.680;'2023-07-29 07:04:02';99300;;;19;62
30343;BME280;17145;49.902;8.680;'2023-07-29 07:06:29';99300;;;19;62
30343;BME280;17145;49.902;8.680;'2023-07-29 07:08:57';99290;;;19;62
30343;BME280;17145;49.902;8.680;'2023-07-29 07:11:25';99300;;;19;62
30343;BME280;17145;49.902;8.680;'2023-07-29 07:13:52';99300;;;19;62
30343;BME280;17145;49.902;8.680;'2023-07-29 07:16:19';99300;;;19;62
30343;BME280;17145;49.902;8.680;'2023-07-29 07:18:47';99300;;;19;62
30343;BME280;17145;49.902;8.680;'2023-07-29 07:21:14';99300;;;19;62
30343;BME280;17145;49.902;8.680;'2023-07-29 07:23:41';99300;;;19;61
30343;BME280;17145;49.902;8.680;'2023-07-29 07:26:09';99300;;;19;62
30343;BME280;17145;49.902;8.680;'2023-07-29 07:28:36';99310;;;19;62
30343;BME280;17145;49.902;8.680;'2023-07-29 07:31:03';99320;;;19;62
30343;BME280;17145;49.902;8.680;'2023-07-29 07:33:30';99320;;;19;61
30343;BME280;17145;49.902;8.680;'2023-07-29 07:35:58';99320;;;19;62
30343;BME280;17145;49.902;8.680;'2023-07-29 07:38:26';99320;;;18;62
30343;BME280;17145;49.902;8.680;'2023-07-29 07:40:53';99330;;;19;62
30343;BME280;17145;49.902;8.680;'2023-07-29 07:43:21';99320;;;19;62
30343;BME280;17145;49.902;8.680;'2023-07-29 07:45:48';99320;;;19;62
30343;BME280;17145;49.902;8.680;'2023-07-29 07:48:15';99320;;;19;62
30343;BME280;17145;49.902;8.680;'2023-07-29 07:50:43';99320;;;19;62
30343;BME280;17145;49.902;8.680;'2023-07-29 07:53:10';99320;;;19;62
30343;BME280;17145;49.902;8.680;'2023-07-29 07:55:37';99320;;;19;62
30343;BME280;17145;49.902;8.680;'2023-07-29 07:58:05';99320;;;19;62
30343;BME280;17145;49.902;8.680;'2023-07-29 08:00:32';99330;;;19;62
30343;BME280;17145;49.902;8.680;'2023-07-29 08:03:00';99340;;;19;62
30343;BME280;17145;49.902;8.680;'2023-07-29 08:05:27';99330;;;19;62
30343;BME280;17145;49.902;8.680;'2023-07-29 08:07:55';99330;;;19;62
30343;BME280;17145;49.902;8.680;'2023-07-29 08:10:22';99330;;;19;62
30343;BME280;17145;49.902;8.680;'2023-07-29 08:12:49';99340;;;19;62
30343;BME280;17145;49.902;8.680;'2023-07-29 08:15:17';99330;;;19;62
30343;BME280;17145;49.902;8.680;'2023-07-29 08:17:45';99330;;;19;62
30343;BME280;17145;49.902;8.680;'2023-07-29 08:20:12';99340;;;19;62
30343;BME280;17145;49.902;8.680;'2023-07-29 08:22:40';99340;;;19;62
30343;BME280;17145;49.902;8.680;'2023-07-29 08:25:08';99330;;;19;62
30343;BME280;17145;49.902;8.680;'2023-07-29 08:27:35';99330;;;19;62
30343;BME280;17145;49.902;8.680;'2023-07-29 08:30:03';99330;;;19;62
30343;BME280;17145;49.902;8.680;'2023-07-29 08:32:31';99340;;;19;62
30343;BME280;17145;49.902;8.680;'2023-07-29 08:34:59';99340;;;19;62
30343;BME280;17145;49.902;8.680;'2023-07-29 08:37:26';99340;;;19;62
30343;BME280;17145;49.902;8.680;'2023-07-29 08:39:53';99340;;;19;62
30343;BME280;17145;49.902;8.680;'2023-07-29 08:42:21';99350;;;19;62
30343;BME280;17145;49.902;8.680;'2023-07-29 08:44:48';99350;;;19;62
30343;BME280;17145;49.902;8.680;'2023-07-29 08:47:15';99350;;;19;63
30343;BME280;17145;49.902;8.680;'2023-07-29 08:49:43';99350;;;19;63
30343;BME280;17145;49.902;8.680;'2023-07-29 08:52:10';99340;;;19;63
30343;BME280;17145;49.902;8.680;'2023-07-29 08:54:38';99340;;;19;63
30343;BME280;17145;49.902;8.680;'2023-07-29 08:57:06';99310;;;19;63
30343;BME280;17145;49.902;8.680;'2023-07-29 08:59:33';99340;;;19;63
30343;BME280;17145;49.902;8.680;'2023-07-29 09:02:01';99350;;;19;63
30343;BME280;17145;49.902;8.680;'2023-07-29 09:04:28';99370;;;19;63
30343;BME280;17145;49.902;8.680;'2023-07-29 09:06:56';99370;;;19;63
30343;BME280;17145;49.902;8.680;'2023-07-29 09:09:23';99380;;;19;63
30343;BME280;17145;49.902;8.680;'2023-07-29 09:11:50';99370;;;19;64
30343;BME280;17145;49.902;8.680;'2023-07-29 09:14:18';99350;;;19;64
30343;BME280;17145;49.902;8.680;'2023-07-29 09:16:45';99340;;;19;64
30343;BME280;17145;49.902;8.680;'2023-07-29 09:19:13';99340;;;19;64
30343;BME280;17145;49.902;8.680;'2023-07-29 09:21:40';99350;;;19;64
30343;BME280;17145;49.902;8.680;'2023-07-29 09:24:07';99350;;;19;64
30343;BME280;17145;49.902;8.680;'2023-07-29 09:26:35';99350;;;19;64
30343;BME280;17145;49.902;8.680;'2023-07-29 09:29:02';99350;;;19;64
30343;BME280;17145;49.902;8.680;'2023-07-29 09:31:33';99350;;;19;64
30343;BME280;17145;49.902;8.680;'2023-07-29 09:34:01';99360;;;19;64
30343;BME280;17145;49.902;8.680;'2023-07-29 09:36:29';99360;;;19;64
30343;BME280;17145;49.902;8.680;'2023-07-29 09:38:56';99380;;;19;64
30343;BME280;17145;49.902;8.680;'2023-07-29 09:41:24';99380;;;19;64
30343;BME280;17145;49.902;8.680;'2023-07-29 09:43:51';99370;;;18;65
30343;BME280;17145;49.902;8.680;'2023-07-29 09:46:18';99380;;;19;64
30343;BME280;17145;49.902;8.680;'2023-07-29 09:48:46';99390;;;19;64
30343;BME280;17145;49.902;8.680;'2023-07-29 09:51:13';99390;;;19;64
30343;BME280;17145;49.902;8.680;'2023-07-29 09:53:41';99400;;;19;63
30343;BME280;17145;49.902;8.680;'2023-07-29 09:56:08';99400;;;19;63
30343;BME280;17145;49.902;8.680;'2023-07-29 09:58:36';99400;;;19;63
30343;BME280;17145;49.902;8.680;'2023-07-29 10:01:04';99390;;;19;63
30343;BME280;17145;49.902;8.680;'2023-07-29 10:03:32';99390;;;19;63
30343;BME280;17145;49.902;8.680;'2023-07-29 10:06:00';99390;;;19;63
30343;BME280;17145;49.902;8.680;'2023-07-29 10:08:28';99390;;;19;63
30343;BME280;17145;49.902;8.680;'2023-07-29 10:10:57';99380;;;19;62
30343;BME280;17145;49.902;8.680;'2023-07-29 10:13:24';99380;;;19;63
30343;BME280;17145;49.902;8.680;'2023-07-29 10:15:52';99380;;;19;63
30343;BME280;17145;49.902;8.680;'2023-07-29 10:18:20';99390;;;19;63
30343;BME280;17145;49.902;8.680;'2023-07-29 10:20:53';99380;;;19;63
30343;BME280;17145;49.902;8.680;'2023-07-29 10:23:20';99390;;;19;62
30343;BME280;17145;49.902;8.680;'2023-07-29 10:25:52';99390;;;19;62
30343;BME280;17145;49.902;8.680;'2023-07-29 10:28:20';99400;;;19;62
30343;BME280;17145;49.902;8.680;'2023-07-29 10:30:47';99390;;;19;62
30343;BME280;17145;49.902;8.680;'2023-07-29 10:33:15';99400;;;20;63
30343;BME280;17145;49.902;8.680;'2023-07-29 10:35:42';99400;;;20;62
30343;BME280;17145;49.902;8.680;'2023-07-29 10:38:10';99410;;;20;61
30343;BME280;17145;49.902;8.680;'2023-07-29 10:40:42';99410;;;20;60
30343;BME280;17145;49.902;8.680;'2023-07-29 10:43:11';99410;;;20;61
30343;BME280;17145;49.902;8.680;'2023-07-29 10:45:41';99400;;;20;61
30343;BME280;17145;49.902;8.680;'2023-07-29 10:48:10';99400;;;20;60
30343;BME280;17145;49.902;8.680;'2023-07-29 10:50:39';99400;;;20;61
30343;BME280;17145;49.902;8.680;'2023-07-29 10:53:06';99400;;;20;60
30343;BME280;17145;49.902;8.680;'2023-07-29 10:55:34';99400;;;20;60
30343;BME280;17145;49.902;8.680;'2023-07-29 10:58:02';99390;;;20;60
30343;BME280;17145;49.902;8.680;'2023-07-29 11:00:30';99400;;;20;59
30343;BME280;17145;49.902;8.680;'2023-07-29 11:02:58';99400;;;20;59
30343;BME280;17145;49.902;8.680;'2023-07-29 11:05:25';99400;;;20;59
30343;BME280;17145;49.902;8.680;'2023-07-29 11:07:55';99400;;;20;59
30343;BME280;17145;49.902;8.680;'2023-07-29 11:10:26';99400;;;20;58
30343;BME280;17145;49.902;8.680;'2023-07-29 11:12:53';99400;;;20;57
30343;BME280;17145;49.902;8.680;'2023-07-29 11:15:36';99400;;;20;57
30343;BME280;17145;49.902;8.680;'2023-07-29 11:18:10';99400;;;20;58
30343;BME280;17145;49.902;8.680;'2023-07-29 11:20:37';99400;;;21;57
30343;BME280;17145;49.902;8.680;'2023-07-29 11:23:08';99400;;;21;56
30343;BME280;17145;49.902;8.680;'2023-07-29 11:25:35';99410;;;21;56
30343;BME280;17145;49.902;8.680;'2023-07-29 11:28:08';99410;;;21;56
30343;BME280;17145;49.902;8.680;'2023-07-29 11:30:36';99410;;;21;56
30343;BME280;17145;49.902;8.680;'2023-07-29 11:33:04';99410;;;21;56
30343;BME280;17145;49.902;8.680;'2023-07-29 11:35:35';99400;;;21;56
30343;BME280;17145;49.902;8.680;'2023-07-29 11:38:03';99400;;;21;57
30343;BME280;17145;49.902;8.680;'2023-07-29 11:40:35';99400;;;21;56
30343;BME280;17145;49.902;8.680;'2023-07-29 11:43:03';99400;;;21;55
30343;BME280;17145;49.902;8.680;'2023-07-29 11:45:33';99400;;;21;54
30343;BME280;17145;49.902;8.680;'2023-07-29 11:48:02';99410;;;21;53
30343;BME280;17145;49.902;8.680;'2023-07-29 11:50:29';99400;;;21;53
30343;BME280;17145;49.902;8.680;'2023-07-29 11:52:57';99400;;;21;54
30343;BME280;17145;49.902;8.680;'2023-07-29 11:55:26';99400;;;22;54
30343;BME280;17145;49.902;8.680;'2023-07-29 11:57:55';99390;;;22;53
30343;BME280;17145;49.902;8.680;'2023-07-29 12:00:23';99380;;;22;51
30343;BME280;17145;49.902;8.680;'2023-07-29 12:02:51';99380;;;22;51
30343;BME280;17145;49.902;8.680;'2023-07-29 12:05:21';99380;;;22;50
30343;BME280;17145;49.902;8.680;'2023-07-29 12:07:50';99370;;;22;51
30343;BME280;17145;49.902;8.680;'2023-07-29 12:10:17';99360;;;22;50
30343;BME280;17145;49.902;8.680;'2023-07-29 12:12:45';99360;;;22;50
30343;BME280;17145;49.902;8.680;'2023-07-29 12:15:13';99370;;;23;50
30343;BME280;17145;49.902;8.680;'2023-07-29 12:17:41';99360;;;23;50
30343;BME280;17145;49.902;8.680;'2023-07-29 12:20:10';99360;;;23;50
30343;BME280;17145;49.902;8.680;'2023-07-29 12:22:40';99360;;;23;50
30343;BME280;17145;49.902;8.680;'2023-07-29 12:25:13';99360;;;23;49
30343;BME280;17145;49.902;8.680;'2023-07-29 12:27:47';99370;;;23;48
30343;BME280;17145;49.902;8.680;'2023-07-29 12:30:14';99360;;;23;48
30343;BME280;17145;49.902;8.680;'2023-07-29 12:32:44';99360;;;24;48
30343;BME280;17145;49.902;8.680;'2023-07-29 12:35:12';99360;;;24;48
30343;BME280;17145;49.902;8.680;'2023-07-29 12:37:40';99370;;;23;47
30343;BME280;17145;49.902;8.680;'2023-07-29 12:40:09';99370;;;23;48
30343;BME280;17145;49.902;8.680;'2023-07-29 12:42:37';99370;;;23;48
30343;BME280;17145;49.902;8.680;'2023-07-29 12:45:18';99360;;;23;49
30343;BME280;17145;49.902;8.680;'2023-07-29 12:47:46';99370;;;23;49
30343;BME280;17145;49.902;8.680;'2023-07-29 12:50:19';99360;;;22;50
30343;BME280;17145;49.902;8.680;'2023-07-29 12:52:51';99350;;;23;49
30343;BME280;17145;49.902;8.680;'2023-07-29 12:55:26';99340;;;22;50
30343;BME280;17145;49.902;8.680;'2023-07-29 12:58:05';99340;;;22;51
30343;BME280;17145;49.902;8.680;'2023-07-29 13:00:32';99340;;;22;52
30343;BME280;17145;49.902;8.680;'2023-07-29 13:05:43';99320;;;23;53
30343;BME280;17145;49.902;8.680;'2023-07-29 13:08:17';99340;;;23;53
30343;BME280;17145;49.902;8.680;'2023-07-29 13:11:02';99330;;;23;52
30343;BME280;17145;49.902;8.680;'2023-07-29 13:13:30';99330;;;23;51
30343;BME280;17145;49.902;8.680;'2023-07-29 13:15:59';99320;;;23;51
30343;BME280;17145;49.902;8.680;'2023-07-29 13:18:28';99320;;;23;51
30343;BME280;17145;49.902;8.680;'2023-07-29 13:20:57';99320;;;23;50
30343;BME280;17145;49.902;8.680;'2023-07-29 13:23:29';99320;;;23;50
30343;BME280;17145;49.902;8.680;'2023-07-29 13:25:58';99320;;;23;49
30343;BME280;17145;49.902;8.680;'2023-07-29 13:28:25';99320;;;22;49
30343;BME280;17145;49.902;8.680;'2023-07-29 13:30:55';99320;;;23;50
30343;BME280;17145;49.902;8.680;'2023-07-29 13:33:24';99310;;;23;49
30343;BME280;17145;49.902;8.680;'2023-07-29 13:35:51';99310;;;23;50
30343;BME280;17145;49.902;8.680;'2023-07-29 13:38:21';99300;;;23;49
30343;BME280;17145;49.902;8.680;'2023-07-29 13:40:58';99300;;;23;48
30343;BME280;17145;49.902;8.680;'2023-07-29 13:43:26';99300;;;24;47
30343;BME280;17145;49.902;8.680;'2023-07-29 13:45:53';99290;;;24;45
30343;BME280;17145;49.902;8.680;'2023-07-29 13:48:28';99280;;;24;46
30343;BME280;17145;49.902;8.680;'2023-07-29 13:50:56';99280;;;24;45
30343;BME280;17145;49.902;8.680;'2023-07-29 13:53:27';99280;;;24;44
30343;BME280;17145;49.902;8.680;'2023-07-29 13:55:54';99290;;;24;43
30343;BME280;17145;49.902;8.680;'2023-07-29 13:58:22';99280;;;24;43
30343;BME280;17145;49.902;8.680;'2023-07-29 14:00:49';99290;;;24;42
30343;BME280;17145;49.902;8.680;'2023-07-29 14:03:17';99280;;;24;40
30343;BME280;17145;49.902;8.680;'2023-07-29 14:05:44';99290;;;25;41
30343;BME280;17145;49.902;8.680;'2023-07-29 14:08:12';99300;;;24;40
30343;BME280;17145;49.902;8.680;'2023-07-29 14:10:40';99290;;;24;39
30343;BME280;17145;49.902;8.680;'2023-07-29 14:13:08';99280;;;24;39
30343;BME280;17145;49.902;8.680;'2023-07-29 14:15:38';99280;;;24;39
30343;BME280;17145;49.902;8.680;'2023-07-29 14:18:05';99290;;;24;39
30343;BME280;17145;49.902;8.680;'2023-07-29 14:20:34';99300;;;24;40
30343;BME280;17145;49.902;8.680;'2023-07-29 14:23:01';99280;;;24;39
30343;BME280;17145;49.902;8.680;'2023-07-29 14:25:29';99280;;;24;38
30343;BME280;17145;49.902;8.680;'2023-07-29 14:28:01';99270;;;25;37
30343;BME280;17145;49.902;8.680;'2023-07-29 14:30:28';99280;;;25;37
30343;BME280;17145;49.902;8.680;'2023-07-29 14:32:56';99270;;;25;36
30343;BME280;17145;49.902;8.680;'2023-07-29 14:35:24';99280;;;26;36
30343;BME280;17145;49.902;8.680;'2023-07-29 14:37:59';99270;;;26;35
30343;BME280;17145;49.902;8.680;'2023-07-29 14:40:27';99270;;;26;35
30343;BME280;17145;49.902;8.680;'2023-07-29 14:42:55';99280;;;25;34
30343;BME280;17145;49.902;8.680;'2023-07-29 14:45:22';99270;;;26;35
30343;BME280;17145;49.902;8.680;'2023-07-29 14:47:50';99270;;;26;35
30343;BME280;17145;49.902;8.680;'2023-07-29 14:50:17';99280;;;25;35
30343;BME280;17145;49.902;8.680;'2023-07-29 14:52:45';99280;;;25;34
30343;BME280;17145;49.902;8.680;'2023-07-29 14:55:12';99290;;;25;33
30343;BME280;17145;49.902;8.680;'2023-07-29 14:57:41';99270;;;25;33
30343;BME280;17145;49.902;8.680;'2023-07-29 15:00:10';99270;;;26;33
30343;BME280;17145;49.902;8.680;'2023-07-29 15:02:38';99300;;;26;33
30343;BME280;17145;49.902;8.680;'2023-07-29 15:05:09';99280;;;26;32
30343;BME280;17145;49.902;8.680;'2023-07-29 15:07:36';99270;;;26;32
30343;BME280;17145;49.902;8.680;'2023-07-29 15:10:04';99280;;;27;32
30343;BME280;17145;49.902;8.680;'2023-07-29 15:12:32';99270;;;27;31
30343;BME280;17145;49.902;8.680;'2023-07-29 15:14:59';99270;;;27;32
30343;BME280;17145;49.902;8.680;'2023-07-29 15:17:27';99270;;;28;30
30343;BME280;17145;49.902;8.680;'2023-07-29 15:19:54';99260;;;27;29
30343;BME280;17145;49.902;8.680;'2023-07-29 15:22:22';99260;;;27;29
30343;BME280;17145;49.902;8.680;'2023-07-29 15:24:49';99270;;;27;29
30343;BME280;17145;49.902;8.680;'2023-07-29 15:27:17';99260;;;28;29
30343;BME280;17145;49.902;8.680;'2023-07-29 15:29:44';99260;;;28;29
30343;BME280;17145;49.902;8.680;'2023-07-29 15:32:12';99260;;;28;29
30343;BME280;17145;49.902;8.680;'2023-07-29 15:34:39';99270;;;28;28
30343;BME280;17145;49.902;8.680;'2023-07-29 15:37:06';99300;;;27;27
30343;BME280;17145;49.902;8.680;'2023-07-29 15:39:34';99270;;;27;27
30343;BME280;17145;49.902;8.680;'2023-07-29 15:42:01';99280;;;27;28
30343;BME280;17145;49.902;8.680;'2023-07-29 15:44:29';99270;;;27;28
30343;BME280;17145;49.902;8.680;'2023-07-29 15:46:56';99270;;;27;28
30343;BME280;17145;49.902;8.680;'2023-07-29 15:49:24';99280;;;27;27
30343;BME280;17145;49.902;8.680;'2023-07-29 15:51:51';99270;;;28;28
30343;BME280;17145;49.902;8.680;'2023-07-29 15:54:19';99280;;;28;27
30343;BME280;17145;49.902;8.680;'2023-07-29 15:56:46';99270;;;28;28
30343;BME280;17145;49.902;8.680;'2023-07-29 15:59:13';99260;;;28;28
30343;BME280;17145;49.902;8.680;'2023-07-29 16:01:41';99270;;;28;28
30343;BME280;17145;49.902;8.680;'2023-07-29 16:04:08';99270;;;28;28
30343;BME280;17145;49.902;8.680;'2023-07-29 16:06:36';99280;;;28;28
30343;BME280;17145;49.902;8.680;'2023-07-29 16:09:03';99270;;;27;28
30343;BME280;17145;49.902;8.680;'2023-07-29 16:11:30';99280;;;28;27
30343;BME280;17145;49.902;8.680;'2023-07-29 16:13:58';99280;;;28;27
30343;BME280;17145;49.902;8.680;'2023-07-29 16:16:25';99270;;;28;27
30343;BME280;17145;49.902;8.680;'2023-07-29 16:18:53';99290;;;28;28
30343;BME280;17145;49.902;8.680;'2023-07-29 16:21:20';99290;;;28;28
30343;BME280;17145;49.902;8.680;'2023-07-29 16:23:48';99280;;;28;28
30343;BME280;17145;49.902;8.680;'2023-07-29 16:26:15';99290;;;28;28